sensor_id;sensor_type;location;lat;lon;timestamp;P1;durP1;ratioP1;P2;durP2;ratioP2
14187;SDS011;7175;51.978;5.330;2023-01-29T00:02:18;35.37;;;33.07;;
14187;SDS011;7175;51.978;5.330;2023-01-29T00:04:48;36.37;;;33.97;;
14187;SDS011;7175;51.978;5.330;2023-01-29T00:07:16;38.50;;;36.10;;
14187;SDS011;7175;51.978;5.330;2023-01-29T00:09:45;39.70;;;37.10;;
14187;SDS011;7175;51.978;5.330;2023-01-29T00:12:13;37.00;;;34.60;;
14187;SDS011;7175;51.978;5.330;2023-01-29T00:14:41;35.47;;;33.17;;
14187;SDS011;7175;51.978;5.330;2023-01-29T00:17:10;34.57;;;32.27;;
14187;SDS011;7175;51.978;5.330;2023-01-29T00:19:38;36.73;;;34.33;;
14187;SDS011;7175;51.978;5.330;2023-01-29T00:22:07;35.40;;;33.10;;
14187;SDS011;7175;51.978;5.330;2023-01-29T00:24:36;36.17;;;33.87;;
14187;SDS011;7175;51.978;5.330;2023-01-29T00:27:04;37.10;;;34.70;;
14187;SDS011;7175;51.978;5.330;2023-01-29T00:29:32;37.77;;;35.37;;
14187;SDS011;7175;51.978;5.330;2023-01-29T00:32:00;38.87;;;36.27;;
14187;SDS011;7175;51.978;5.330;2023-01-29T00:34:28;39.30;;;36.80;;
14187;SDS011;7175;51.978;5.330;2023-01-29T00:36:56;37.67;;;35.27;;
14187;SDS011;7175;51.978;5.330;2023-01-29T00:39:31;38.17;;;35.77;;
14187;SDS011;7175;51.978;5.330;2023-01-29T00:42:13;38.70;;;36.20;;
14187;SDS011;7175;51.978;5.330;2023-01-29T00:44:59;36.47;;;34.07;;
14187;SDS011;7175;51.978;5.330;2023-01-29T00:47:27;35.70;;;33.40;;
14187;SDS011;7175;51.978;5.330;2023-01-29T00:49:59;35.33;;;33.03;;
14187;SDS011;7175;51.978;5.330;2023-01-29T00:52:28;37.53;;;35.03;;
14187;SDS011;7175;51.978;5.330;2023-01-29T00:54:58;37.43;;;35.03;;
14187;SDS011;7175;51.978;5.330;2023-01-29T00:57:27;36.40;;;34.00;;
14187;SDS011;7175;51.978;5.330;2023-01-29T00:59:58;36.47;;;34.07;;
14187;SDS011;7175;51.978;5.330;2023-01-29T01:02:26;37.30;;;34.90;;
14187;SDS011;7175;51.978;5.330;2023-01-29T01:05:13;40.63;;;37.63;;
14187;SDS011;7175;51.978;5.330;2023-01-29T01:07:44;38.53;;;36.03;;
14187;SDS011;7175;51.978;5.330;2023-01-29T01:10:15;40.20;;;37.60;;
14187;SDS011;7175;51.978;5.330;2023-01-29T01:12:48;39.23;;;36.73;;
14187;SDS011;7175;51.978;5.330;2023-01-29T01:15:20;38.50;;;36.00;;
14187;SDS011;7175;51.978;5.330;2023-01-29T01:17:52;38.03;;;35.57;;
14187;SDS011;7175;51.978;5.330;2023-01-29T01:20:21;38.73;;;36.23;;
14187;SDS011;7175;51.978;5.330;2023-01-29T01:22:49;38.87;;;36.37;;
14187;SDS011;7175;51.978;5.330;2023-01-29T01:25:19;39.10;;;36.60;;
14187;SDS011;7175;51.978;5.330;2023-01-29T01:27:50;39.37;;;36.87;;
14187;SDS011;7175;51.978;5.330;2023-01-29T01:30:19;41.03;;;38.43;;
14187;SDS011;7175;51.978;5.330;2023-01-29T01:32:47;40.27;;;37.73;;
14187;SDS011;7175;51.978;5.330;2023-01-29T01:35:15;40.10;;;37.60;;
14187;SDS011;7175;51.978;5.330;2023-01-29T01:37:43;39.70;;;37.20;;
14187;SDS011;7175;51.978;5.330;2023-01-29T01:40:15;41.90;;;39.30;;
14187;SDS011;7175;51.978;5.330;2023-01-29T01:42:47;40.37;;;37.77;;
14187;SDS011;7175;51.978;5.330;2023-01-29T01:45:21;41.13;;;38.53;;
14187;SDS011;7175;51.978;5.330;2023-01-29T01:47:53;43.30;;;40.53;;
14187;SDS011;7175;51.978;5.330;2023-01-29T01:50:27;40.90;;;38.30;;
14187;SDS011;7175;51.978;5.330;2023-01-29T01:52:59;39.73;;;37.23;;
14187;SDS011;7175;51.978;5.330;2023-01-29T01:55:31;39.60;;;37.10;;
14187;SDS011;7175;51.978;5.330;2023-01-29T01:58:03;39.13;;;36.63;;
14187;SDS011;7175;51.978;5.330;2023-01-29T02:00:36;39.93;;;37.33;;
14187;SDS011;7175;51.978;5.330;2023-01-29T02:03:05;40.67;;;38.07;;
14187;SDS011;7175;51.978;5.330;2023-01-29T02:05:54;39.93;;;37.33;;
14187;SDS011;7175;51.978;5.330;2023-01-29T02:08:43;42.83;;;40.03;;
14187;SDS011;7175;51.978;5.330;2023-01-29T02:11:34;39.67;;;37.17;;
14187;SDS011;7175;51.978;5.330;2023-01-29T02:14:04;41.20;;;38.50;;
14187;SDS011;7175;51.978;5.330;2023-01-29T02:16:33;39.10;;;36.60;;
14187;SDS011;7175;51.978;5.330;2023-01-29T02:19:02;40.90;;;38.30;;
14187;SDS011;7175;51.978;5.330;2023-01-29T02:21:51;41.27;;;38.53;;
14187;SDS011;7175;51.978;5.330;2023-01-29T02:27:26;40.93;;;38.27;;
14187;SDS011;7175;51.978;5.330;2023-01-29T02:30:04;41.20;;;38.60;;
14187;SDS011;7175;51.978;5.330;2023-01-29T02:32:39;39.77;;;37.17;;
14187;SDS011;7175;51.978;5.330;2023-01-29T02:35:23;39.70;;;37.20;;
14187;SDS011;7175;51.978;5.330;2023-01-29T02:38:00;39.70;;;37.20;;
14187;SDS011;7175;51.978;5.330;2023-01-29T02:40:38;39.20;;;36.70;;
14187;SDS011;7175;51.978;5.330;2023-01-29T02:43:14;39.50;;;37.00;;
14187;SDS011;7175;51.978;5.330;2023-01-29T02:45:53;38.20;;;35.80;;
14187;SDS011;7175;51.978;5.330;2023-01-29T02:48:33;40.07;;;37.43;;
14187;SDS011;7175;51.978;5.330;2023-01-29T02:51:08;38.40;;;35.90;;
14187;SDS011;7175;51.978;5.330;2023-01-29T02:53:45;38.80;;;36.40;;
14187;SDS011;7175;51.978;5.330;2023-01-29T02:56:20;39.10;;;36.50;;
14187;SDS011;7175;51.978;5.330;2023-01-29T02:58:54;37.30;;;34.90;;
14187;SDS011;7175;51.978;5.330;2023-01-29T03:01:29;37.47;;;35.07;;
14187;SDS011;7175;51.978;5.330;2023-01-29T03:04:03;36.40;;;34.00;;
14187;SDS011;7175;51.978;5.330;2023-01-29T03:06:36;37.33;;;34.93;;
14187;SDS011;7175;51.978;5.330;2023-01-29T03:09:08;37.33;;;34.93;;
14187;SDS011;7175;51.978;5.330;2023-01-29T03:11:41;38.67;;;36.17;;
14187;SDS011;7175;51.978;5.330;2023-01-29T03:14:13;39.03;;;36.53;;
14187;SDS011;7175;51.978;5.330;2023-01-29T03:16:46;38.20;;;35.70;;
14187;SDS011;7175;51.978;5.330;2023-01-29T03:19:17;38.10;;;35.63;;
14187;SDS011;7175;51.978;5.330;2023-01-29T03:21:47;38.40;;;35.90;;
14187;SDS011;7175;51.978;5.330;2023-01-29T03:24:26;38.20;;;35.80;;
14187;SDS011;7175;51.978;5.330;2023-01-29T03:27:19;40.90;;;38.30;;
14187;SDS011;7175;51.978;5.330;2023-01-29T03:30:09;41.17;;;38.57;;
14187;SDS011;7175;51.978;5.330;2023-01-29T03:33:02;41.93;;;39.13;;
14187;SDS011;7175;51.978;5.330;2023-01-29T03:35:33;39.97;;;37.47;;
14187;SDS011;7175;51.978;5.330;2023-01-29T03:38:06;39.00;;;36.50;;
14187;SDS011;7175;51.978;5.330;2023-01-29T03:40:39;37.07;;;34.67;;
14187;SDS011;7175;51.978;5.330;2023-01-29T03:43:13;36.60;;;34.23;;
14187;SDS011;7175;51.978;5.330;2023-01-29T03:45:52;41.37;;;38.60;;
14187;SDS011;7175;51.978;5.330;2023-01-29T03:48:31;35.87;;;33.50;;
14187;SDS011;7175;51.978;5.330;2023-01-29T03:51:08;35.27;;;32.97;;
14187;SDS011;7175;51.978;5.330;2023-01-29T03:53:47;34.70;;;32.40;;
14187;SDS011;7175;51.978;5.330;2023-01-29T03:56:24;35.97;;;33.47;;
14187;SDS011;7175;51.978;5.330;2023-01-29T03:59:01;34.60;;;32.30;;
14187;SDS011;7175;51.978;5.330;2023-01-29T04:01:38;34.00;;;31.70;;
14187;SDS011;7175;51.978;5.330;2023-01-29T04:04:15;34.30;;;32.00;;
14187;SDS011;7175;51.978;5.330;2023-01-29T04:06:47;34.30;;;32.00;;
14187;SDS011;7175;51.978;5.330;2023-01-29T04:09:18;33.17;;;30.97;;
14187;SDS011;7175;51.978;5.330;2023-01-29T04:11:51;32.23;;;30.07;;
14187;SDS011;7175;51.978;5.330;2023-01-29T04:14:24;33.43;;;31.23;;
14187;SDS011;7175;51.978;5.330;2023-01-29T04:16:52;32.30;;;30.10;;
14187;SDS011;7175;51.978;5.330;2023-01-29T04:19:25;32.00;;;29.80;;
14187;SDS011;7175;51.978;5.330;2023-01-29T04:21:57;33.00;;;30.80;;
14187;SDS011;7175;51.978;5.330;2023-01-29T04:24:32;32.53;;;30.33;;
14187;SDS011;7175;51.978;5.330;2023-01-29T04:27:05;31.83;;;29.70;;
14187;SDS011;7175;51.978;5.330;2023-01-29T04:29:49;31.43;;;29.27;;
14187;SDS011;7175;51.978;5.330;2023-01-29T04:32:31;32.30;;;30.10;;
14187;SDS011;7175;51.978;5.330;2023-01-29T04:35:08;31.50;;;29.40;;
14187;SDS011;7175;51.978;5.330;2023-01-29T04:37:48;33.20;;;30.80;;
14187;SDS011;7175;51.978;5.330;2023-01-29T04:40:24;31.40;;;29.30;;
14187;SDS011;7175;51.978;5.330;2023-01-29T04:42:59;31.23;;;29.13;;
14187;SDS011;7175;51.978;5.330;2023-01-29T04:45:35;31.00;;;28.90;;
14187;SDS011;7175;51.978;5.330;2023-01-29T04:48:16;31.50;;;29.30;;
14187;SDS011;7175;51.978;5.330;2023-01-29T04:50:52;29.30;;;27.30;;
14187;SDS011;7175;51.978;5.330;2023-01-29T04:53:24;29.10;;;27.10;;
14187;SDS011;7175;51.978;5.330;2023-01-29T04:56:00;28.80;;;26.80;;
14187;SDS011;7175;51.978;5.330;2023-01-29T04:58:36;29.13;;;27.13;;
14187;SDS011;7175;51.978;5.330;2023-01-29T05:01:07;29.30;;;27.23;;
14187;SDS011;7175;51.978;5.330;2023-01-29T05:03:38;29.90;;;27.80;;
14187;SDS011;7175;51.978;5.330;2023-01-29T05:06:11;29.37;;;27.37;;
14187;SDS011;7175;51.978;5.330;2023-01-29T05:08:42;29.10;;;27.03;;
14187;SDS011;7175;51.978;5.330;2023-01-29T05:11:10;28.47;;;26.47;;
14187;SDS011;7175;51.978;5.330;2023-01-29T05:13:39;29.47;;;27.40;;
14187;SDS011;7175;51.978;5.330;2023-01-29T05:16:12;29.50;;;27.40;;
14187;SDS011;7175;51.978;5.330;2023-01-29T05:18:43;33.57;;;30.93;;
14187;SDS011;7175;51.978;5.330;2023-01-29T05:21:13;28.13;;;26.13;;
14187;SDS011;7175;51.978;5.330;2023-01-29T05:23:41;27.07;;;25.17;;
14187;SDS011;7175;51.978;5.330;2023-01-29T05:26:18;26.77;;;24.87;;
14187;SDS011;7175;51.978;5.330;2023-01-29T05:29:05;26.57;;;24.67;;
14187;SDS011;7175;51.978;5.330;2023-01-29T05:31:33;25.87;;;23.97;;
14187;SDS011;7175;51.978;5.330;2023-01-29T05:34:01;25.50;;;23.63;;
14187;SDS011;7175;51.978;5.330;2023-01-29T05:36:31;25.93;;;24.03;;
14187;SDS011;7175;51.978;5.330;2023-01-29T05:39:00;28.30;;;26.10;;
14187;SDS011;7175;51.978;5.330;2023-01-29T05:41:28;28.07;;;25.53;;
14187;SDS011;7175;51.978;5.330;2023-01-29T05:43:56;26.60;;;24.70;;
14187;SDS011;7175;51.978;5.330;2023-01-29T05:46:24;26.70;;;24.80;;
14187;SDS011;7175;51.978;5.330;2023-01-29T05:48:53;26.70;;;24.80;;
14187;SDS011;7175;51.978;5.330;2023-01-29T05:51:21;27.13;;;25.13;;
14187;SDS011;7175;51.978;5.330;2023-01-29T05:53:50;25.70;;;23.80;;
14187;SDS011;7175;51.978;5.330;2023-01-29T05:56:18;25.93;;;24.03;;
14187;SDS011;7175;51.978;5.330;2023-01-29T05:58:47;25.83;;;23.93;;
14187;SDS011;7175;51.978;5.330;2023-01-29T06:01:15;26.40;;;24.50;;
14187;SDS011;7175;51.978;5.330;2023-01-29T06:03:45;26.50;;;24.60;;
14187;SDS011;7175;51.978;5.330;2023-01-29T06:06:13;26.83;;;24.93;;
14187;SDS011;7175;51.978;5.330;2023-01-29T06:08:42;25.93;;;24.10;;
14187;SDS011;7175;51.978;5.330;2023-01-29T06:11:12;25.50;;;23.70;;
14187;SDS011;7175;51.978;5.330;2023-01-29T06:13:41;25.50;;;23.70;;
14187;SDS011;7175;51.978;5.330;2023-01-29T06:16:10;25.80;;;24.00;;
14187;SDS011;7175;51.978;5.330;2023-01-29T06:18:39;27.20;;;24.90;;
14187;SDS011;7175;51.978;5.330;2023-01-29T06:21:09;26.47;;;24.57;;
14187;SDS011;7175;51.978;5.330;2023-01-29T06:23:38;26.43;;;24.53;;
14187;SDS011;7175;51.978;5.330;2023-01-29T06:26:07;27.00;;;25.10;;
14187;SDS011;7175;51.978;5.330;2023-01-29T06:28:39;26.83;;;24.93;;
14187;SDS011;7175;51.978;5.330;2023-01-29T06:31:07;26.90;;;25.00;;
14187;SDS011;7175;51.978;5.330;2023-01-29T06:33:56;26.50;;;24.67;;
14187;SDS011;7175;51.978;5.330;2023-01-29T06:36:25;27.17;;;25.27;;
14187;SDS011;7175;51.978;5.330;2023-01-29T06:38:53;27.20;;;25.10;;
14187;SDS011;7175;51.978;5.330;2023-01-29T06:41:21;26.50;;;24.43;;
14187;SDS011;7175;51.978;5.330;2023-01-29T06:43:52;25.77;;;23.97;;
14187;SDS011;7175;51.978;5.330;2023-01-29T06:46:20;26.80;;;24.90;;
14187;SDS011;7175;51.978;5.330;2023-01-29T06:48:48;26.57;;;24.67;;
14187;SDS011;7175;51.978;5.330;2023-01-29T06:51:17;25.67;;;23.87;;
14187;SDS011;7175;51.978;5.330;2023-01-29T06:53:46;24.03;;;22.33;;
14187;SDS011;7175;51.978;5.330;2023-01-29T06:56:14;25.00;;;23.23;;
14187;SDS011;7175;51.978;5.330;2023-01-29T06:58:42;24.60;;;22.90;;
14187;SDS011;7175;51.978;5.330;2023-01-29T07:01:12;24.33;;;22.63;;
14187;SDS011;7175;51.978;5.330;2023-01-29T07:04:00;23.73;;;22.03;;
14187;SDS011;7175;51.978;5.330;2023-01-29T07:06:28;24.93;;;23.00;;
14187;SDS011;7175;51.978;5.330;2023-01-29T07:08:57;23.90;;;22.20;;
14187;SDS011;7175;51.978;5.330;2023-01-29T07:11:25;24.03;;;22.37;;
14187;SDS011;7175;51.978;5.330;2023-01-29T07:13:53;24.10;;;22.40;;
14187;SDS011;7175;51.978;5.330;2023-01-29T07:16:23;25.13;;;23.33;;
14187;SDS011;7175;51.978;5.330;2023-01-29T07:18:51;22.90;;;21.30;;
14187;SDS011;7175;51.978;5.330;2023-01-29T07:21:20;22.67;;;21.07;;
14187;SDS011;7175;51.978;5.330;2023-01-29T07:23:48;22.63;;;20.97;;
14187;SDS011;7175;51.978;5.330;2023-01-29T07:26:16;23.10;;;21.40;;
14187;SDS011;7175;51.978;5.330;2023-01-29T07:28:45;25.97;;;23.73;;
14187;SDS011;7175;51.978;5.330;2023-01-29T07:31:13;22.23;;;20.60;;
14187;SDS011;7175;51.978;5.330;2023-01-29T07:33:43;22.43;;;20.83;;
14187;SDS011;7175;51.978;5.330;2023-01-29T07:36:12;22.00;;;20.40;;
14187;SDS011;7175;51.978;5.330;2023-01-29T07:38:41;22.97;;;21.27;;
14187;SDS011;7175;51.978;5.330;2023-01-29T07:41:10;22.37;;;20.77;;
14187;SDS011;7175;51.978;5.330;2023-01-29T07:43:38;23.20;;;21.60;;
14187;SDS011;7175;51.978;5.330;2023-01-29T07:46:07;23.40;;;21.80;;
14187;SDS011;7175;51.978;5.330;2023-01-29T07:48:35;21.90;;;20.30;;
14187;SDS011;7175;51.978;5.330;2023-01-29T07:51:05;21.87;;;20.27;;
14187;SDS011;7175;51.978;5.330;2023-01-29T07:53:33;22.00;;;20.40;;
14187;SDS011;7175;51.978;5.330;2023-01-29T07:56:02;21.70;;;20.10;;
14187;SDS011;7175;51.978;5.330;2023-01-29T07:58:31;21.53;;;19.93;;
14187;SDS011;7175;51.978;5.330;2023-01-29T08:01:03;21.50;;;19.90;;
14187;SDS011;7175;51.978;5.330;2023-01-29T08:03:33;22.97;;;21.07;;
14187;SDS011;7175;51.978;5.330;2023-01-29T08:06:01;20.10;;;18.60;;
14187;SDS011;7175;51.978;5.330;2023-01-29T08:11:01;23.47;;;21.77;;
14187;SDS011;7175;51.978;5.330;2023-01-29T08:13:31;20.57;;;19.17;;
14187;SDS011;7175;51.978;5.330;2023-01-29T08:15:59;20.90;;;19.40;;
14187;SDS011;7175;51.978;5.330;2023-01-29T08:18:29;19.80;;;18.40;;
14187;SDS011;7175;51.978;5.330;2023-01-29T08:20:58;19.47;;;18.07;;
14187;SDS011;7175;51.978;5.330;2023-01-29T08:23:26;20.10;;;18.70;;
14187;SDS011;7175;51.978;5.330;2023-01-29T08:25:56;20.20;;;18.70;;
14187;SDS011;7175;51.978;5.330;2023-01-29T08:28:24;19.83;;;18.33;;
14187;SDS011;7175;51.978;5.330;2023-01-29T08:30:52;20.00;;;18.50;;
14187;SDS011;7175;51.978;5.330;2023-01-29T08:33:21;20.37;;;18.80;;
14187;SDS011;7175;51.978;5.330;2023-01-29T08:36:04;19.97;;;18.47;;
14187;SDS011;7175;51.978;5.330;2023-01-29T08:38:33;19.90;;;18.40;;
14187;SDS011;7175;51.978;5.330;2023-01-29T08:41:03;20.80;;;19.20;;
14187;SDS011;7175;51.978;5.330;2023-01-29T08:43:31;19.30;;;17.80;;
14187;SDS011;7175;51.978;5.330;2023-01-29T08:46:02;22.67;;;20.30;;
14187;SDS011;7175;51.978;5.330;2023-01-29T08:48:30;20.33;;;18.83;;
14187;SDS011;7175;51.978;5.330;2023-01-29T08:50:59;20.10;;;18.53;;
14187;SDS011;7175;51.978;5.330;2023-01-29T08:53:28;19.17;;;17.70;;
14187;SDS011;7175;51.978;5.330;2023-01-29T08:55:56;20.07;;;18.57;;
14187;SDS011;7175;51.978;5.330;2023-01-29T08:58:25;21.27;;;19.57;;
14187;SDS011;7175;51.978;5.330;2023-01-29T09:00:53;20.00;;;18.50;;
14187;SDS011;7175;51.978;5.330;2023-01-29T09:03:22;19.53;;;17.93;;
14187;SDS011;7175;51.978;5.330;2023-01-29T09:05:50;20.83;;;19.13;;
14187;SDS011;7175;51.978;5.330;2023-01-29T09:08:18;20.20;;;18.60;;
14187;SDS011;7175;51.978;5.330;2023-01-29T09:10:46;19.60;;;18.07;;
14187;SDS011;7175;51.978;5.330;2023-01-29T09:13:14;19.50;;;18.00;;
14187;SDS011;7175;51.978;5.330;2023-01-29T09:15:44;19.80;;;18.20;;
14187;SDS011;7175;51.978;5.330;2023-01-29T09:18:12;19.70;;;18.20;;
14187;SDS011;7175;51.978;5.330;2023-01-29T09:20:40;20.20;;;18.60;;
14187;SDS011;7175;51.978;5.330;2023-01-29T09:23:08;19.90;;;18.30;;
14187;SDS011;7175;51.978;5.330;2023-01-29T09:25:37;20.07;;;18.53;;
14187;SDS011;7175;51.978;5.330;2023-01-29T09:28:05;20.40;;;18.80;;
14187;SDS011;7175;51.978;5.330;2023-01-29T09:30:33;19.80;;;18.27;;
14187;SDS011;7175;51.978;5.330;2023-01-29T09:33:05;20.23;;;18.63;;
14187;SDS011;7175;51.978;5.330;2023-01-29T09:35:34;20.63;;;19.03;;
14187;SDS011;7175;51.978;5.330;2023-01-29T09:38:02;19.47;;;17.97;;
14187;SDS011;7175;51.978;5.330;2023-01-29T09:40:32;19.70;;;18.20;;
14187;SDS011;7175;51.978;5.330;2023-01-29T09:43:05;22.30;;;20.50;;
14187;SDS011;7175;51.978;5.330;2023-01-29T09:45:39;20.50;;;18.90;;
14187;SDS011;7175;51.978;5.330;2023-01-29T09:48:17;19.70;;;18.20;;
14187;SDS011;7175;51.978;5.330;2023-01-29T09:50:48;20.50;;;18.70;;
14187;SDS011;7175;51.978;5.330;2023-01-29T09:53:20;19.80;;;18.20;;
14187;SDS011;7175;51.978;5.330;2023-01-29T09:55:56;20.30;;;18.60;;
14187;SDS011;7175;51.978;5.330;2023-01-29T09:58:29;19.70;;;18.10;;
14187;SDS011;7175;51.978;5.330;2023-01-29T10:01:04;19.30;;;17.80;;
14187;SDS011;7175;51.978;5.330;2023-01-29T10:03:47;19.93;;;18.33;;
14187;SDS011;7175;51.978;5.330;2023-01-29T10:06:36;19.60;;;18.00;;
14187;SDS011;7175;51.978;5.330;2023-01-29T10:09:28;19.47;;;17.97;;
14187;SDS011;7175;51.978;5.330;2023-01-29T10:12:18;20.07;;;18.47;;
14187;SDS011;7175;51.978;5.330;2023-01-29T10:14:59;19.53;;;18.03;;
14187;SDS011;7175;51.978;5.330;2023-01-29T10:17:41;19.40;;;17.90;;
14187;SDS011;7175;51.978;5.330;2023-01-29T10:20:30;22.23;;;20.43;;
14187;SDS011;7175;51.978;5.330;2023-01-29T10:23:14;19.77;;;18.27;;
14187;SDS011;7175;51.978;5.330;2023-01-29T10:25:46;20.20;;;18.60;;
14187;SDS011;7175;51.978;5.330;2023-01-29T10:28:17;19.30;;;17.80;;
14187;SDS011;7175;51.978;5.330;2023-01-29T10:30:47;21.90;;;19.93;;
14187;SDS011;7175;51.978;5.330;2023-01-29T10:33:18;19.43;;;17.93;;
14187;SDS011;7175;51.978;5.330;2023-01-29T10:35:59;20.67;;;19.00;;
14187;SDS011;7175;51.978;5.330;2023-01-29T10:38:33;22.53;;;20.40;;
14187;SDS011;7175;51.978;5.330;2023-01-29T10:41:26;19.20;;;17.70;;
14187;SDS011;7175;51.978;5.330;2023-01-29T10:47:06;19.40;;;17.90;;
14187;SDS011;7175;51.978;5.330;2023-01-29T10:49:58;19.27;;;17.77;;
14187;SDS011;7175;51.978;5.330;2023-01-29T10:52:48;18.53;;;17.13;;
14187;SDS011;7175;51.978;5.330;2023-01-29T10:55:33;18.77;;;17.37;;
14187;SDS011;7175;51.978;5.330;2023-01-29T10:58:17;19.00;;;17.60;;
14187;SDS011;7175;51.978;5.330;2023-01-29T11:00:52;18.77;;;17.37;;
14187;SDS011;7175;51.978;5.330;2023-01-29T11:03:20;18.90;;;17.50;;
14187;SDS011;7175;51.978;5.330;2023-01-29T11:05:55;20.63;;;19.03;;
14187;SDS011;7175;51.978;5.330;2023-01-29T11:08:30;19.57;;;18.07;;
14187;SDS011;7175;51.978;5.330;2023-01-29T11:11:05;18.80;;;17.37;;
14187;SDS011;7175;51.978;5.330;2023-01-29T11:13:36;19.63;;;18.13;;
14187;SDS011;7175;51.978;5.330;2023-01-29T11:16:08;19.30;;;17.80;;
14187;SDS011;7175;51.978;5.330;2023-01-29T11:18:49;18.90;;;17.50;;
14187;SDS011;7175;51.978;5.330;2023-01-29T11:21:19;18.30;;;16.90;;
14187;SDS011;7175;51.978;5.330;2023-01-29T11:23:49;18.63;;;17.23;;
14187;SDS011;7175;51.978;5.330;2023-01-29T11:26:32;19.40;;;17.90;;
14187;SDS011;7175;51.978;5.330;2023-01-29T11:29:03;18.30;;;16.90;;
14187;SDS011;7175;51.978;5.330;2023-01-29T11:31:34;18.23;;;16.83;;
14187;SDS011;7175;51.978;5.330;2023-01-29T11:34:05;19.20;;;17.70;;
14187;SDS011;7175;51.978;5.330;2023-01-29T11:36:40;18.70;;;17.30;;
14187;SDS011;7175;51.978;5.330;2023-01-29T11:39:20;18.83;;;17.43;;
14187;SDS011;7175;51.978;5.330;2023-01-29T11:41:52;18.60;;;17.20;;
14187;SDS011;7175;51.978;5.330;2023-01-29T11:44:26;18.40;;;17.00;;
14187;SDS011;7175;51.978;5.330;2023-01-29T11:46:57;19.13;;;17.73;;
14187;SDS011;7175;51.978;5.330;2023-01-29T11:49:36;19.40;;;17.90;;
14187;SDS011;7175;51.978;5.330;2023-01-29T11:52:06;19.00;;;17.60;;
14187;SDS011;7175;51.978;5.330;2023-01-29T11:54:38;19.07;;;17.67;;
14187;SDS011;7175;51.978;5.330;2023-01-29T11:57:18;18.40;;;17.00;;
14187;SDS011;7175;51.978;5.330;2023-01-29T11:59:51;19.90;;;18.30;;
14187;SDS011;7175;51.978;5.330;2023-01-29T12:05:13;19.60;;;18.10;;
14187;SDS011;7175;51.978;5.330;2023-01-29T12:07:43;20.57;;;18.97;;
14187;SDS011;7175;51.978;5.330;2023-01-29T12:10:32;19.73;;;18.23;;
14187;SDS011;7175;51.978;5.330;2023-01-29T12:13:05;18.73;;;17.30;;
14187;SDS011;7175;51.978;5.330;2023-01-29T12:15:48;19.20;;;17.70;;
14187;SDS011;7175;51.978;5.330;2023-01-29T12:18:18;18.90;;;17.50;;
14187;SDS011;7175;51.978;5.330;2023-01-29T12:20:56;18.73;;;17.33;;
14187;SDS011;7175;51.978;5.330;2023-01-29T12:23:30;18.90;;;17.40;;
14187;SDS011;7175;51.978;5.330;2023-01-29T12:26:07;19.00;;;17.50;;
14187;SDS011;7175;51.978;5.330;2023-01-29T12:28:43;19.40;;;17.90;;
14187;SDS011;7175;51.978;5.330;2023-01-29T12:31:20;19.93;;;18.40;;
14187;SDS011;7175;51.978;5.330;2023-01-29T12:33:57;20.60;;;19.10;;
14187;SDS011;7175;51.978;5.330;2023-01-29T12:36:32;19.03;;;17.60;;
14187;SDS011;7175;51.978;5.330;2023-01-29T12:39:04;18.83;;;17.40;;
14187;SDS011;7175;51.978;5.330;2023-01-29T12:41:38;19.47;;;17.97;;
14187;SDS011;7175;51.978;5.330;2023-01-29T12:44:12;19.37;;;17.87;;
14187;SDS011;7175;51.978;5.330;2023-01-29T12:46:44;19.57;;;18.07;;
14187;SDS011;7175;51.978;5.330;2023-01-29T12:49:17;20.03;;;18.53;;
14187;SDS011;7175;51.978;5.330;2023-01-29T12:51:54;20.40;;;18.90;;
14187;SDS011;7175;51.978;5.330;2023-01-29T12:54:27;19.53;;;18.03;;
14187;SDS011;7175;51.978;5.330;2023-01-29T12:57:03;19.80;;;18.30;;
14187;SDS011;7175;51.978;5.330;2023-01-29T12:59:38;21.70;;;20.10;;
14187;SDS011;7175;51.978;5.330;2023-01-29T13:02:11;20.30;;;18.50;;
14187;SDS011;7175;51.978;5.330;2023-01-29T13:04:47;19.83;;;18.27;;
14187;SDS011;7175;51.978;5.330;2023-01-29T13:07:23;20.00;;;18.50;;
14187;SDS011;7175;51.978;5.330;2023-01-29T13:09:56;20.60;;;19.00;;
14187;SDS011;7175;51.978;5.330;2023-01-29T13:12:32;20.47;;;18.90;;
14187;SDS011;7175;51.978;5.330;2023-01-29T13:15:02;20.10;;;18.60;;
14187;SDS011;7175;51.978;5.330;2023-01-29T13:17:36;19.73;;;18.23;;
14187;SDS011;7175;51.978;5.330;2023-01-29T13:20:10;19.80;;;18.30;;
14187;SDS011;7175;51.978;5.330;2023-01-29T13:22:44;20.97;;;19.37;;
14187;SDS011;7175;51.978;5.330;2023-01-29T13:25:14;19.67;;;18.17;;
14187;SDS011;7175;51.978;5.330;2023-01-29T13:27:45;19.80;;;18.30;;
14187;SDS011;7175;51.978;5.330;2023-01-29T13:30:24;20.10;;;18.60;;
14187;SDS011;7175;51.978;5.330;2023-01-29T13:32:54;20.07;;;18.50;;
14187;SDS011;7175;51.978;5.330;2023-01-29T13:35:35;19.20;;;17.70;;
14187;SDS011;7175;51.978;5.330;2023-01-29T13:38:14;21.27;;;19.67;;
14187;SDS011;7175;51.978;5.330;2023-01-29T13:40:50;19.70;;;18.20;;
14187;SDS011;7175;51.978;5.330;2023-01-29T13:43:29;20.23;;;18.63;;
14187;SDS011;7175;51.978;5.330;2023-01-29T13:46:05;20.20;;;18.60;;
14187;SDS011;7175;51.978;5.330;2023-01-29T13:48:39;19.07;;;17.57;;
14187;SDS011;7175;51.978;5.330;2023-01-29T13:51:09;20.03;;;18.53;;
14187;SDS011;7175;51.978;5.330;2023-01-29T13:53:42;21.47;;;19.83;;
14187;SDS011;7175;51.978;5.330;2023-01-29T13:56:27;20.17;;;18.67;;
14187;SDS011;7175;51.978;5.330;2023-01-29T13:59:19;19.13;;;17.63;;
14187;SDS011;7175;51.978;5.330;2023-01-29T14:01:59;18.90;;;17.50;;
14187;SDS011;7175;51.978;5.330;2023-01-29T14:04:29;19.90;;;18.37;;
14187;SDS011;7175;51.978;5.330;2023-01-29T14:06:58;22.10;;;20.17;;
14187;SDS011;7175;51.978;5.330;2023-01-29T14:12:36;19.77;;;18.27;;
14187;SDS011;7175;51.978;5.330;2023-01-29T14:15:30;19.60;;;18.10;;
14187;SDS011;7175;51.978;5.330;2023-01-29T14:20:53;19.80;;;18.27;;
14187;SDS011;7175;51.978;5.330;2023-01-29T14:23:29;19.67;;;18.17;;
14187;SDS011;7175;51.978;5.330;2023-01-29T14:26:17;19.33;;;17.83;;
14187;SDS011;7175;51.978;5.330;2023-01-29T14:28:52;19.60;;;18.10;;
14187;SDS011;7175;51.978;5.330;2023-01-29T14:31:29;19.80;;;18.20;;
14187;SDS011;7175;51.978;5.330;2023-01-29T14:34:12;20.37;;;18.83;;
14187;SDS011;7175;51.978;5.330;2023-01-29T14:36:45;20.20;;;18.70;;
14187;SDS011;7175;51.978;5.330;2023-01-29T14:39:19;19.77;;;18.27;;
14187;SDS011;7175;51.978;5.330;2023-01-29T14:41:55;19.60;;;18.10;;
14187;SDS011;7175;51.978;5.330;2023-01-29T14:47:52;19.40;;;17.90;;
14187;SDS011;7175;51.978;5.330;2023-01-29T14:53:31;19.63;;;18.13;;
14187;SDS011;7175;51.978;5.330;2023-01-29T14:56:14;19.60;;;18.10;;
14187;SDS011;7175;51.978;5.330;2023-01-29T14:58:46;18.90;;;17.50;;
14187;SDS011;7175;51.978;5.330;2023-01-29T15:01:21;19.30;;;17.80;;
14187;SDS011;7175;51.978;5.330;2023-01-29T15:03:54;18.90;;;17.50;;
14187;SDS011;7175;51.978;5.330;2023-01-29T15:06:28;18.50;;;17.10;;
14187;SDS011;7175;51.978;5.330;2023-01-29T15:09:02;19.40;;;17.70;;
14187;SDS011;7175;51.978;5.330;2023-01-29T15:11:39;18.80;;;17.40;;
14187;SDS011;7175;51.978;5.330;2023-01-29T15:14:21;19.77;;;18.27;;
14187;SDS011;7175;51.978;5.330;2023-01-29T15:16:59;18.60;;;17.20;;
14187;SDS011;7175;51.978;5.330;2023-01-29T15:19:44;18.80;;;17.40;;
14187;SDS011;7175;51.978;5.330;2023-01-29T15:22:14;19.10;;;17.70;;
14187;SDS011;7175;51.978;5.330;2023-01-29T15:24:44;19.90;;;18.40;;
14187;SDS011;7175;51.978;5.330;2023-01-29T15:27:14;19.30;;;17.90;;
14187;SDS011;7175;51.978;5.330;2023-01-29T15:29:46;20.63;;;19.10;;
14187;SDS011;7175;51.978;5.330;2023-01-29T15:32:22;19.83;;;18.43;;
14187;SDS011;7175;51.978;5.330;2023-01-29T15:34:57;21.13;;;19.60;;